createdAt,value
2017-10-20T00:00:23.650Z,0
2017-10-20T00:01:04.097Z,0
2017-10-20T00:01:44.555Z,0
2017-10-20T00:02:25.017Z,0
2017-10-20T00:03:05.501Z,0
2017-10-20T00:03:46.392Z,0
2017-10-20T00:04:26.852Z,0
2017-10-20T00:05:07.303Z,0
2017-10-20T00:05:47.766Z,0
2017-10-20T00:06:28.228Z,0
2017-10-20T00:07:08.667Z,0
2017-10-20T00:07:49.115Z,0
2017-10-20T00:08:29.553Z,0
2017-10-20T00:09:09.989Z,0
2017-10-20T00:09:50.428Z,0
2017-10-20T00:10:30.883Z,0
2017-10-20T00:11:11.333Z,0
2017-10-20T00:11:51.774Z,0
2017-10-20T00:12:32.227Z,0
2017-10-20T00:13:12.693Z,0
2017-10-20T00:13:53.143Z,0
2017-10-20T00:14:33.598Z,0
2017-10-20T00:15:14.059Z,0
2017-10-20T00:15:54.527Z,0
2017-10-20T00:16:34.980Z,0
2017-10-20T00:17:15.431Z,0
2017-10-20T00:17:55.882Z,0
2017-10-20T00:18:36.325Z,0
2017-10-20T00:19:16.772Z,0
2017-10-20T00:19:57.233Z,0
2017-10-20T00:20:37.685Z,0
2017-10-20T00:21:18.140Z,0
2017-10-20T00:21:58.603Z,0
2017-10-20T00:22:39.060Z,0
2017-10-20T00:23:19.511Z,0
2017-10-20T00:23:59.985Z,0
2017-10-20T00:24:40.487Z,0
2017-10-20T00:25:20.957Z,0
2017-10-20T00:26:01.400Z,0
2017-10-20T00:26:41.844Z,0
2017-10-20T00:27:22.296Z,0
2017-10-20T00:28:02.744Z,0
2017-10-20T00:28:43.191Z,0
2017-10-20T00:29:23.639Z,0
2017-10-20T00:30:04.088Z,0
2017-10-20T00:30:44.552Z,0
2017-10-20T00:31:24.991Z,0
2017-10-20T00:32:05.431Z,0
2017-10-20T00:32:45.877Z,0
2017-10-20T00:33:26.328Z,0
2017-10-20T00:34:06.774Z,0
2017-10-20T00:34:47.231Z,0
2017-10-20T00:35:27.693Z,0
2017-10-20T00:36:08.150Z,0
2017-10-20T00:36:48.605Z,0
2017-10-20T00:37:29.058Z,0
2017-10-20T00:38:09.514Z,0
2017-10-20T00:38:49.973Z,0
2017-10-20T00:39:30.422Z,0
2017-10-20T00:40:10.873Z,0
2017-10-20T00:40:51.340Z,0
2017-10-20T00:41:31.822Z,0
2017-10-20T00:42:12.250Z,0
2017-10-20T00:42:52.706Z,0
2017-10-20T00:43:33.153Z,0
2017-10-20T00:44:13.604Z,0
2017-10-20T00:44:54.050Z,0
2017-10-20T00:45:34.489Z,0
2017-10-20T00:46:14.935Z,0
2017-10-20T00:46:55.370Z,0
2017-10-20T00:47:35.813Z,0
2017-10-20T00:48:16.259Z,0
2017-10-20T00:48:56.988Z,0
2017-10-20T00:49:37.573Z,0
2017-10-20T00:50:18.754Z,0
2017-10-20T00:50:59.141Z,0
2017-10-20T00:51:39.593Z,0
2017-10-20T00:52:20.047Z,0
2017-10-20T00:53:00.528Z,0
2017-10-20T00:53:41.793Z,0
2017-10-20T00:54:22.526Z,0
2017-10-20T00:55:03.115Z,0
2017-10-20T00:55:43.950Z,0
2017-10-20T00:56:24.404Z,0
2017-10-20T00:57:04.863Z,0
2017-10-20T00:57:45.340Z,0
2017-10-20T00:58:25.787Z,0
2017-10-20T00:59:06.246Z,0
2017-10-20T00:59:46.705Z,0
2017-10-20T01:00:27.147Z,0
2017-10-20T01:01:07.599Z,0
2017-10-20T01:01:48.057Z,0
2017-10-20T01:02:28.512Z,0
2017-10-20T01:03:08.965Z,0
2017-10-20T01:03:49.431Z,0
2017-10-20T01:04:29.880Z,0
2017-10-20T01:05:10.337Z,0
2017-10-20T01:05:50.787Z,0
2017-10-20T01:06:31.233Z,0
2017-10-20T01:07:11.692Z,0
2017-10-20T01:07:52.137Z,0
2017-10-20T01:08:32.584Z,0
2017-10-20T01:09:13.048Z,0
2017-10-20T01:09:53.512Z,0
2017-10-20T01:10:33.974Z,0
2017-10-20T01:11:14.415Z,0
2017-10-20T01:11:54.869Z,0
2017-10-20T01:12:35.325Z,0
2017-10-20T01:13:15.785Z,0
2017-10-20T01:13:56.241Z,0
2017-10-20T01:14:36.693Z,0
2017-10-20T01:15:17.170Z,0
2017-10-20T01:15:57.608Z,0
2017-10-20T01:16:38.047Z,0
2017-10-20T01:17:18.506Z,0
2017-10-20T01:17:58.944Z,0
2017-10-20T01:18:39.399Z,0
2017-10-20T01:19:19.851Z,0
2017-10-20T01:20:00.300Z,0
2017-10-20T01:20:40.748Z,0
2017-10-20T01:21:21.196Z,0
2017-10-20T01:22:01.652Z,0
2017-10-20T01:22:42.107Z,0
2017-10-20T01:23:23.046Z,0
2017-10-20T01:24:03.520Z,0
2017-10-20T01:24:43.959Z,0
2017-10-20T01:25:24.403Z,0
2017-10-20T01:26:04.848Z,0
2017-10-20T01:26:45.338Z,0
2017-10-20T01:27:25.785Z,0
2017-10-20T01:28:06.230Z,0
2017-10-20T01:28:46.679Z,0
2017-10-20T01:29:27.127Z,0
2017-10-20T01:30:07.580Z,0
2017-10-20T01:30:48.032Z,0
2017-10-20T01:31:28.495Z,0
2017-10-20T01:32:08.952Z,0
2017-10-20T01:32:49.405Z,0
2017-10-20T01:33:29.862Z,0
2017-10-20T01:34:10.313Z,0
2017-10-20T01:34:50.769Z,0
2017-10-20T01:35:31.225Z,0
2017-10-20T01:36:11.672Z,0
2017-10-20T01:36:52.123Z,0
2017-10-20T01:37:32.564Z,0
2017-10-20T01:38:13.021Z,0
2017-10-20T01:38:53.467Z,0
2017-10-20T01:39:33.917Z,0
2017-10-20T01:40:14.365Z,0
2017-10-20T01:40:54.816Z,0
2017-10-20T01:41:35.280Z,0
2017-10-20T01:42:15.735Z,0
2017-10-20T01:42:56.191Z,0
2017-10-20T01:43:36.644Z,0
2017-10-20T01:44:17.101Z,0
2017-10-20T01:44:57.549Z,0
2017-10-20T01:45:38.419Z,0
2017-10-20T01:46:19.169Z,0
2017-10-20T01:46:59.559Z,0
2017-10-20T01:47:40.035Z,0
2017-10-20T01:48:20.485Z,0
2017-10-20T01:49:00.940Z,0
2017-10-20T01:49:41.379Z,0
2017-10-20T01:50:21.829Z,0
2017-10-20T01:51:02.283Z,0
2017-10-20T01:51:42.734Z,0
2017-10-20T01:52:23.191Z,0
2017-10-20T01:53:03.639Z,0
2017-10-20T01:53:44.101Z,0
2017-10-20T01:54:24.569Z,0
2017-10-20T01:55:05.020Z,0
2017-10-20T01:55:45.474Z,0
2017-10-20T01:56:25.942Z,0
2017-10-20T01:57:06.391Z,0
2017-10-20T01:57:46.846Z,0
2017-10-20T01:58:27.323Z,0
2017-10-20T01:59:07.778Z,0
2017-10-20T01:59:48.234Z,0
2017-10-20T02:00:28.679Z,0
2017-10-20T02:01:09.132Z,0
2017-10-20T02:01:49.585Z,0
2017-10-20T02:02:30.037Z,0
2017-10-20T02:03:10.492Z,0
2017-10-20T02:03:50.963Z,0
2017-10-20T02:04:31.416Z,0
2017-10-20T02:05:11.877Z,0
2017-10-20T02:05:52.332Z,0
2017-10-20T02:06:32.782Z,0
2017-10-20T02:07:13.230Z,0
2017-10-20T02:07:53.695Z,0
2017-10-20T02:08:34.145Z,0
2017-10-20T02:09:14.592Z,0
2017-10-20T02:09:55.039Z,0
2017-10-20T02:10:35.540Z,0
2017-10-20T02:11:16.016Z,0
2017-10-20T02:11:56.460Z,0
2017-10-20T02:12:36.903Z,0
2017-10-20T02:13:17.360Z,0
2017-10-20T02:13:57.822Z,0
2017-10-20T02:14:38.282Z,0
2017-10-20T02:15:18.740Z,0
2017-10-20T02:15:59.189Z,0
2017-10-20T02:16:39.636Z,0
2017-10-20T02:17:20.087Z,0
2017-10-20T02:18:00.542Z,0
2017-10-20T02:18:41.006Z,0
2017-10-20T02:19:21.456Z,0
2017-10-20T02:20:01.911Z,0
2017-10-20T02:20:42.354Z,0
2017-10-20T02:21:22.815Z,0
2017-10-20T02:22:03.271Z,0
2017-10-20T02:22:43.722Z,0
2017-10-20T02:23:24.177Z,0
2017-10-20T02:24:04.634Z,0
2017-10-20T02:24:45.091Z,0
2017-10-20T02:25:25.543Z,0
2017-10-20T02:26:05.991Z,0
2017-10-20T02:26:46.453Z,0
2017-10-20T02:27:26.905Z,0
2017-10-20T02:28:07.362Z,0
2017-10-20T02:28:47.825Z,0
2017-10-20T02:29:28.276Z,0
2017-10-20T02:30:08.736Z,0
2017-10-20T02:30:49.198Z,0
2017-10-20T02:31:29.643Z,0
2017-10-20T02:32:10.086Z,0
2017-10-20T02:32:50.544Z,0
2017-10-20T02:33:31.015Z,0
2017-10-20T02:34:11.620Z,0
2017-10-20T02:34:52.072Z,0
2017-10-20T02:35:32.539Z,0
2017-10-20T02:36:12.992Z,0
2017-10-20T02:36:53.447Z,0
2017-10-20T02:37:33.904Z,0
2017-10-20T02:38:14.359Z,0
2017-10-20T02:38:54.811Z,0
2017-10-20T02:39:35.262Z,0
2017-10-20T02:40:15.735Z,0
2017-10-20T02:40:56.176Z,0
2017-10-20T02:41:36.634Z,0
2017-10-20T02:42:17.091Z,0
2017-10-20T02:42:57.556Z,0
2017-10-20T02:43:38.026Z,0
2017-10-20T02:44:18.511Z,0
2017-10-20T02:44:58.935Z,0
2017-10-20T02:45:39.365Z,0
2017-10-20T02:46:19.830Z,0
2017-10-20T02:47:00.272Z,0
2017-10-20T02:47:40.720Z,0
2017-10-20T02:48:21.180Z,0
2017-10-20T02:49:01.634Z,0
2017-10-20T02:49:42.087Z,0
2017-10-20T02:50:22.563Z,0
2017-10-20T02:51:03.045Z,0
2017-10-20T02:51:43.480Z,0
2017-10-20T02:52:23.936Z,0
2017-10-20T02:53:04.397Z,0
2017-10-20T02:53:44.850Z,0
2017-10-20T02:54:25.313Z,0
2017-10-20T02:55:07.032Z,0
2017-10-20T02:55:47.496Z,0
2017-10-20T02:56:27.956Z,0
2017-10-20T02:57:08.418Z,0
2017-10-20T02:57:48.870Z,0
2017-10-20T02:58:29.315Z,0
2017-10-20T02:59:09.768Z,0
2017-10-20T02:59:50.241Z,0
2017-10-20T03:00:30.689Z,0
2017-10-20T03:01:11.156Z,0
2017-10-20T03:01:51.615Z,0
2017-10-20T03:02:32.069Z,0
2017-10-20T03:03:12.525Z,0
2017-10-20T03:03:52.978Z,0
2017-10-20T03:04:33.423Z,0
2017-10-20T03:05:13.869Z,0
2017-10-20T03:05:54.303Z,0
2017-10-20T03:06:34.762Z,0
2017-10-20T03:07:15.222Z,0
2017-10-20T03:07:55.687Z,0
2017-10-20T03:08:36.118Z,0
2017-10-20T03:09:16.588Z,0
2017-10-20T03:09:57.041Z,0
2017-10-20T03:10:37.508Z,0
2017-10-20T03:11:17.954Z,0
2017-10-20T03:11:58.405Z,0
2017-10-20T03:12:38.867Z,0
2017-10-20T03:13:19.321Z,0
2017-10-20T03:13:59.778Z,0
2017-10-20T03:14:40.243Z,0
2017-10-20T03:15:20.710Z,0
2017-10-20T03:16:01.166Z,0
2017-10-20T03:16:41.617Z,0
2017-10-20T03:17:22.078Z,0
2017-10-20T03:18:02.526Z,0
2017-10-20T03:18:42.982Z,0
2017-10-20T03:19:23.447Z,0
2017-10-20T03:20:03.912Z,0
2017-10-20T03:20:44.358Z,0
2017-10-20T03:21:24.812Z,0
2017-10-20T03:22:05.263Z,0
2017-10-20T03:22:45.707Z,0
2017-10-20T03:23:26.165Z,0
2017-10-20T03:24:06.610Z,0
2017-10-20T03:24:47.060Z,0
2017-10-20T03:25:27.515Z,0
2017-10-20T03:26:07.968Z,0
2017-10-20T03:26:48.433Z,0
2017-10-20T03:27:28.888Z,0
2017-10-20T03:28:09.350Z,0
2017-10-20T03:28:49.808Z,0
2017-10-20T03:29:30.250Z,0
2017-10-20T03:30:10.700Z,0
2017-10-20T03:30:51.143Z,0
2017-10-20T03:31:31.594Z,0
2017-10-20T03:32:12.059Z,0
2017-10-20T03:32:52.507Z,0
2017-10-20T03:33:32.969Z,0
2017-10-20T03:34:13.426Z,0
2017-10-20T03:34:53.880Z,0
2017-10-20T03:35:34.345Z,0
2017-10-20T03:36:14.792Z,0
2017-10-20T03:36:55.245Z,0
2017-10-20T03:37:35.712Z,0
2017-10-20T03:38:16.166Z,0
2017-10-20T03:38:56.609Z,0
2017-10-20T03:39:37.072Z,0
2017-10-20T03:40:17.526Z,0
2017-10-20T03:40:57.993Z,0
2017-10-20T03:41:38.448Z,0
2017-10-20T03:42:18.898Z,0
2017-10-20T03:42:59.364Z,0
2017-10-20T03:43:39.806Z,0
2017-10-20T03:44:20.259Z,0
2017-10-20T03:45:00.706Z,0
2017-10-20T03:45:41.165Z,0
2017-10-20T03:46:21.609Z,0
2017-10-20T03:47:02.056Z,0
2017-10-20T03:47:42.517Z,0
2017-10-20T03:48:22.977Z,0
2017-10-20T03:49:03.436Z,0
2017-10-20T03:49:43.871Z,0
2017-10-20T03:50:24.329Z,0
2017-10-20T03:51:04.783Z,0
2017-10-20T03:51:45.242Z,0
2017-10-20T03:52:25.688Z,0
2017-10-20T03:53:06.137Z,0
2017-10-20T03:53:46.602Z,0
2017-10-20T03:54:27.064Z,0
2017-10-20T03:55:07.528Z,0
2017-10-20T03:55:47.989Z,0
2017-10-20T03:56:28.447Z,0
2017-10-20T03:57:08.898Z,0
2017-10-20T03:57:49.354Z,0
2017-10-20T03:58:29.811Z,0
2017-10-20T03:59:10.273Z,0
2017-10-20T03:59:50.743Z,0
2017-10-20T04:00:31.223Z,0
2017-10-20T04:01:11.685Z,0
2017-10-20T04:01:52.143Z,0
2017-10-20T04:02:32.624Z,0
2017-10-20T04:03:13.063Z,0
2017-10-20T04:03:53.504Z,0
2017-10-20T04:04:33.959Z,0
2017-10-20T04:05:14.399Z,0
2017-10-20T04:05:54.841Z,0
2017-10-20T04:06:35.313Z,0
2017-10-20T04:07:15.743Z,0
2017-10-20T04:07:56.202Z,0
2017-10-20T04:08:36.649Z,0
2017-10-20T04:09:17.103Z,0
2017-10-20T04:09:57.554Z,0
2017-10-20T04:10:38.012Z,0
2017-10-20T04:11:18.470Z,0
2017-10-20T04:11:58.924Z,0
2017-10-20T04:12:39.380Z,0
2017-10-20T04:13:19.824Z,0
2017-10-20T04:14:00.267Z,0
2017-10-20T04:14:40.718Z,0
2017-10-20T04:15:21.187Z,0
2017-10-20T04:16:01.641Z,0
2017-10-20T04:16:42.096Z,0
2017-10-20T04:17:22.558Z,0
2017-10-20T04:18:03.032Z,0
2017-10-20T04:18:43.483Z,0
2017-10-20T04:19:23.939Z,0
2017-10-20T04:20:04.395Z,0
2017-10-20T04:20:44.845Z,0
2017-10-20T04:21:25.296Z,0
2017-10-20T04:22:05.757Z,0
2017-10-20T04:22:46.206Z,0
2017-10-20T04:23:26.666Z,0
2017-10-20T04:24:07.118Z,0
2017-10-20T04:24:47.579Z,0
2017-10-20T04:25:28.033Z,0
2017-10-20T04:26:08.482Z,0
2017-10-20T04:26:48.937Z,0
2017-10-20T04:27:29.394Z,0
2017-10-20T04:28:09.855Z,0
2017-10-20T04:28:50.325Z,0
2017-10-20T04:29:30.774Z,0
2017-10-20T04:30:11.225Z,0
2017-10-20T04:30:51.682Z,0
2017-10-20T04:31:32.145Z,0
2017-10-20T04:32:12.595Z,0
2017-10-20T04:32:53.051Z,0
2017-10-20T04:33:33.503Z,0
2017-10-20T04:34:13.963Z,0
2017-10-20T04:34:54.409Z,0
2017-10-20T04:35:34.867Z,0
2017-10-20T04:36:15.329Z,0
2017-10-20T04:36:55.782Z,0
2017-10-20T04:37:36.235Z,0
2017-10-20T04:38:16.695Z,0
2017-10-20T04:38:57.144Z,0
2017-10-20T04:39:37.605Z,0
2017-10-20T04:40:18.055Z,0
2017-10-20T04:40:58.509Z,0
2017-10-20T04:41:38.975Z,0
2017-10-20T04:42:19.421Z,0
2017-10-20T04:42:59.873Z,0
2017-10-20T04:43:40.343Z,0
2017-10-20T04:44:20.783Z,0
2017-10-20T04:45:01.228Z,0
2017-10-20T04:45:41.678Z,0
2017-10-20T04:46:22.137Z,0
2017-10-20T04:47:02.570Z,0
2017-10-20T04:47:43.033Z,0
2017-10-20T04:48:23.494Z,0
2017-10-20T04:49:03.938Z,0
2017-10-20T04:49:44.398Z,0
2017-10-20T04:50:24.857Z,0
2017-10-20T04:51:05.312Z,0
2017-10-20T04:51:45.773Z,0
2017-10-20T04:52:26.225Z,0
2017-10-20T04:53:06.676Z,0
2017-10-20T04:53:47.133Z,0
2017-10-20T04:54:27.589Z,0
2017-10-20T04:55:08.044Z,0
2017-10-20T04:55:48.495Z,0
2017-10-20T04:56:28.956Z,0
2017-10-20T04:57:09.403Z,0
2017-10-20T04:57:49.845Z,0
2017-10-20T04:58:30.286Z,0
2017-10-20T04:59:10.742Z,0
2017-10-20T04:59:51.213Z,0
2017-10-20T05:00:31.644Z,0
2017-10-20T05:01:12.095Z,0
2017-10-20T05:01:52.546Z,0
2017-10-20T05:02:33.010Z,0
2017-10-20T05:03:13.492Z,0
2017-10-20T05:03:53.944Z,0
2017-10-20T05:04:34.398Z,0
2017-10-20T05:05:14.857Z,0
2017-10-20T05:05:55.300Z,0
2017-10-20T05:06:35.752Z,0
2017-10-20T05:07:16.207Z,0
2017-10-20T05:07:56.669Z,0
2017-10-20T05:08:37.119Z,0
2017-10-20T05:09:17.582Z,0
2017-10-20T05:09:58.036Z,0
2017-10-20T05:10:38.787Z,0
2017-10-20T05:11:19.236Z,0
2017-10-20T05:11:59.684Z,0
2017-10-20T05:12:40.158Z,0
2017-10-20T05:13:20.713Z,0
2017-10-20T05:14:01.166Z,0
2017-10-20T05:14:41.668Z,0
2017-10-20T05:15:22.084Z,0
2017-10-20T05:16:02.516Z,0
2017-10-20T05:16:42.964Z,0
2017-10-20T05:17:23.798Z,0
2017-10-20T05:18:04.270Z,0
2017-10-20T05:18:44.747Z,0
2017-10-20T05:19:25.212Z,0
2017-10-20T05:20:05.665Z,0
2017-10-20T05:20:46.121Z,0
2017-10-20T05:21:26.573Z,0
2017-10-20T05:22:07.771Z,0
2017-10-20T05:22:48.209Z,0
2017-10-20T05:23:28.662Z,0
2017-10-20T05:24:09.117Z,0
2017-10-20T05:24:49.578Z,0
2017-10-20T05:25:30.036Z,0
2017-10-20T05:26:10.490Z,0
2017-10-20T05:26:50.997Z,0
2017-10-20T05:27:31.460Z,0
2017-10-20T05:28:11.926Z,0
2017-10-20T05:28:52.378Z,0
2017-10-20T05:29:32.832Z,0
2017-10-20T05:30:13.297Z,0
2017-10-20T05:30:53.746Z,0
2017-10-20T05:31:34.205Z,0
2017-10-20T05:32:14.666Z,0
2017-10-20T05:32:55.118Z,0
2017-10-20T05:33:35.562Z,0
2017-10-20T05:34:16.102Z,0
2017-10-20T05:34:56.567Z,0
2017-10-20T05:35:37.018Z,0
2017-10-20T05:36:17.476Z,0
2017-10-20T05:36:57.934Z,0
2017-10-20T05:37:38.383Z,0
2017-10-20T05:38:18.836Z,0
2017-10-20T05:38:59.301Z,0
2017-10-20T05:39:39.758Z,0
2017-10-20T05:40:20.227Z,0
2017-10-20T05:41:00.684Z,0
2017-10-20T05:41:41.142Z,0
2017-10-20T05:42:21.593Z,0
2017-10-20T05:43:02.044Z,0
2017-10-20T05:43:42.492Z,0
2017-10-20T05:44:22.946Z,0
2017-10-20T05:45:03.402Z,0
2017-10-20T05:45:43.849Z,0
2017-10-20T05:46:24.303Z,0
2017-10-20T05:47:04.761Z,0
2017-10-20T05:47:45.217Z,0
2017-10-20T05:48:25.684Z,0
2017-10-20T05:49:06.139Z,0
2017-10-20T05:49:46.584Z,0
2017-10-20T05:50:27.037Z,0
2017-10-20T05:51:07.508Z,0
2017-10-20T05:51:47.946Z,0
2017-10-20T05:52:28.404Z,0
2017-10-20T05:53:08.847Z,0
2017-10-20T05:53:49.306Z,0
2017-10-20T05:54:29.758Z,0
2017-10-20T05:55:10.226Z,0
2017-10-20T05:55:50.682Z,0
2017-10-20T05:56:31.139Z,0
2017-10-20T05:57:11.598Z,0
2017-10-20T05:57:52.051Z,0
2017-10-20T05:58:32.510Z,0
2017-10-20T05:59:12.971Z,0
2017-10-20T05:59:53.434Z,0
2017-10-20T06:00:33.886Z,0
2017-10-20T06:01:14.335Z,0
2017-10-20T06:01:54.783Z,0
2017-10-20T06:02:35.231Z,0
2017-10-20T06:03:15.687Z,0
2017-10-20T06:03:56.147Z,0
2017-10-20T06:04:36.600Z,0
2017-10-20T06:05:17.055Z,0
2017-10-20T06:05:57.516Z,0
2017-10-20T06:06:37.998Z,0
2017-10-20T06:07:18.453Z,0
2017-10-20T06:07:58.913Z,0
2017-10-20T06:08:39.366Z,0
2017-10-20T06:09:19.819Z,0
2017-10-20T06:10:00.307Z,0
2017-10-20T06:10:40.731Z,0
2017-10-20T06:11:21.187Z,0
2017-10-20T06:12:01.639Z,0
2017-10-20T06:12:42.093Z,0
2017-10-20T06:13:22.549Z,0
2017-10-20T06:14:03.003Z,0
2017-10-20T06:14:43.567Z,0
2017-10-20T06:15:24.146Z,0
2017-10-20T06:16:04.604Z,0
2017-10-20T06:16:45.046Z,0
2017-10-20T06:17:25.490Z,0
2017-10-20T06:18:05.951Z,0
2017-10-20T06:18:46.395Z,0
2017-10-20T06:19:26.841Z,0
2017-10-20T06:20:07.283Z,0
2017-10-20T06:20:47.729Z,0
2017-10-20T06:21:28.165Z,0
2017-10-20T06:22:08.642Z,0
2017-10-20T06:22:49.094Z,0
2017-10-20T06:23:29.542Z,0
2017-10-20T06:24:10.006Z,0
2017-10-20T06:24:50.452Z,0
2017-10-20T06:25:30.898Z,0
2017-10-20T06:26:11.362Z,0
2017-10-20T06:26:51.816Z,0
2017-10-20T06:27:32.264Z,0
2017-10-20T06:28:12.721Z,0
2017-10-20T06:28:53.162Z,0
2017-10-20T06:29:33.608Z,0
2017-10-20T06:30:14.076Z,0
2017-10-20T06:30:54.512Z,0
2017-10-20T06:31:34.957Z,0
2017-10-20T06:32:15.409Z,0
2017-10-20T06:32:55.874Z,0
2017-10-20T06:33:36.322Z,0
2017-10-20T06:34:16.807Z,0
2017-10-20T06:34:57.235Z,0
2017-10-20T06:35:37.684Z,0
2017-10-20T06:36:18.136Z,0
2017-10-20T06:36:58.605Z,0
2017-10-20T06:37:39.060Z,0
2017-10-20T06:38:19.509Z,0
2017-10-20T06:38:59.961Z,0
2017-10-20T06:39:40.419Z,0
2017-10-20T06:40:20.871Z,0
2017-10-20T06:41:01.334Z,0
2017-10-20T06:41:41.793Z,0
2017-10-20T06:42:22.240Z,0
2017-10-20T06:43:02.695Z,0
2017-10-20T06:43:43.145Z,0
2017-10-20T06:44:23.605Z,0
2017-10-20T06:45:04.066Z,0
2017-10-20T06:45:44.520Z,0
2017-10-20T06:46:24.976Z,0
2017-10-20T06:47:05.432Z,0
2017-10-20T06:47:45.886Z,0
2017-10-20T06:48:26.345Z,0
2017-10-20T06:49:06.797Z,0
2017-10-20T06:49:47.259Z,0
2017-10-20T06:50:27.714Z,0
2017-10-20T06:51:08.174Z,0
2017-10-20T06:51:48.642Z,0
2017-10-20T06:52:29.097Z,0
2017-10-20T06:53:09.546Z,0
2017-10-20T06:53:49.998Z,0
2017-10-20T06:54:30.465Z,0
2017-10-20T06:55:11.022Z,0
2017-10-20T06:55:51.427Z,0
2017-10-20T06:56:31.874Z,0
2017-10-20T06:57:12.312Z,0
2017-10-20T06:57:52.782Z,0
2017-10-20T06:58:33.232Z,0
2017-10-20T06:59:13.681Z,0
2017-10-20T06:59:54.123Z,0
2017-10-20T07:00:34.588Z,0
2017-10-20T07:01:15.035Z,0
2017-10-20T07:01:55.485Z,0
2017-10-20T07:02:35.931Z,0
2017-10-20T07:03:16.394Z,0
2017-10-20T07:03:56.839Z,0
2017-10-20T07:04:37.291Z,0
2017-10-20T07:05:17.745Z,0
2017-10-20T07:05:58.203Z,0
2017-10-20T07:06:38.664Z,0
2017-10-20T07:07:19.109Z,0
2017-10-20T07:07:59.568Z,0
2017-10-20T07:08:40.046Z,0
2017-10-20T07:09:20.483Z,0
2017-10-20T07:10:00.939Z,0
2017-10-20T07:10:41.391Z,0
2017-10-20T07:11:21.837Z,0
2017-10-20T07:12:02.276Z,0
2017-10-20T07:12:42.725Z,0
2017-10-20T07:13:23.172Z,0
2017-10-20T07:14:03.617Z,0
2017-10-20T07:14:44.066Z,0
2017-10-20T07:15:24.517Z,0
2017-10-20T07:16:04.974Z,0
2017-10-20T07:16:45.427Z,0
2017-10-20T07:17:25.888Z,0
2017-10-20T07:18:06.342Z,0
2017-10-20T07:18:46.791Z,0
2017-10-20T07:19:27.241Z,0
2017-10-20T07:20:07.696Z,0
2017-10-20T07:20:48.174Z,0
2017-10-20T07:21:28.628Z,0
2017-10-20T07:22:09.092Z,0
2017-10-20T07:22:49.554Z,0
2017-10-20T07:23:30.061Z,0
2017-10-20T07:24:10.520Z,0
2017-10-20T07:24:50.973Z,0
2017-10-20T07:25:31.425Z,0
2017-10-20T07:26:11.882Z,0
2017-10-20T07:26:52.341Z,0
2017-10-20T07:27:32.802Z,0
2017-10-20T07:28:13.278Z,0
2017-10-20T07:28:53.727Z,0
2017-10-20T07:29:34.193Z,0
2017-10-20T07:30:14.642Z,0
2017-10-20T07:30:55.111Z,0
2017-10-20T07:31:35.569Z,0
2017-10-20T07:32:16.017Z,0
2017-10-20T07:32:56.533Z,0
2017-10-20T07:33:37.008Z,0
2017-10-20T07:34:17.456Z,0
2017-10-20T07:34:57.918Z,0
2017-10-20T07:35:38.336Z,0
2017-10-20T07:36:18.780Z,0
2017-10-20T07:36:59.229Z,0
2017-10-20T07:37:39.700Z,0
2017-10-20T07:38:20.144Z,0
2017-10-20T07:39:00.606Z,0
2017-10-20T07:39:41.060Z,0
2017-10-20T07:40:21.512Z,0
2017-10-20T07:41:01.983Z,0
2017-10-20T07:41:42.429Z,0
2017-10-20T07:42:22.887Z,0
2017-10-20T07:43:03.350Z,0
2017-10-20T07:43:43.799Z,0
2017-10-20T07:44:24.257Z,0
2017-10-20T07:45:04.719Z,0
2017-10-20T07:45:45.164Z,0
2017-10-20T07:46:25.619Z,0
2017-10-20T07:47:06.070Z,0
2017-10-20T07:47:46.526Z,0
2017-10-20T07:48:26.968Z,0
2017-10-20T07:49:07.414Z,0
2017-10-20T07:49:47.856Z,0
2017-10-20T07:50:28.303Z,0
2017-10-20T07:51:08.754Z,0
2017-10-20T07:51:49.218Z,0
2017-10-20T07:52:29.662Z,0
2017-10-20T07:53:10.113Z,0
2017-10-20T07:53:50.570Z,0
2017-10-20T07:54:31.026Z,0
2017-10-20T07:55:11.497Z,0
2017-10-20T07:55:51.957Z,0
2017-10-20T07:56:32.408Z,0
2017-10-20T07:57:12.854Z,0
2017-10-20T07:57:53.326Z,0
2017-10-20T07:58:33.767Z,0
2017-10-20T07:59:14.218Z,0
2017-10-20T07:59:54.662Z,0
2017-10-20T08:00:35.121Z,0
2017-10-20T08:01:15.572Z,0
2017-10-20T08:01:56.025Z,0
2017-10-20T08:02:36.493Z,0
2017-10-20T08:03:16.942Z,0
2017-10-20T08:03:57.397Z,0
2017-10-20T08:04:37.833Z,0
2017-10-20T08:05:18.295Z,0
2017-10-20T08:05:58.754Z,0
2017-10-20T08:06:39.364Z,0
2017-10-20T08:07:19.639Z,0
2017-10-20T08:08:00.092Z,0
2017-10-20T08:08:40.550Z,0
2017-10-20T08:09:21.016Z,0
2017-10-20T08:10:01.455Z,0
2017-10-20T08:10:41.972Z,0
2017-10-20T08:11:22.431Z,0
2017-10-20T08:12:02.893Z,0
2017-10-20T08:12:43.353Z,0
2017-10-20T08:13:23.856Z,0
2017-10-20T08:14:04.260Z,0
2017-10-20T08:14:44.725Z,0
2017-10-20T08:15:25.177Z,0
2017-10-20T08:16:05.630Z,0
2017-10-20T08:16:46.093Z,0
2017-10-20T08:17:26.544Z,0
2017-10-20T08:18:06.993Z,0
2017-10-20T08:18:47.450Z,0
2017-10-20T08:19:27.902Z,0
2017-10-20T08:20:08.356Z,0
2017-10-20T08:20:48.795Z,0
2017-10-20T08:21:29.233Z,0
2017-10-20T08:22:09.678Z,0
2017-10-20T08:22:50.133Z,0
2017-10-20T08:23:30.616Z,0
2017-10-20T08:24:11.068Z,0
2017-10-20T08:24:51.583Z,0
2017-10-20T08:25:31.976Z,0
2017-10-20T08:26:12.468Z,0
2017-10-20T08:26:52.903Z,0
2017-10-20T08:27:33.362Z,0
2017-10-20T08:28:13.820Z,0
2017-10-20T08:28:54.275Z,0
2017-10-20T08:29:34.738Z,5
2017-10-20T08:30:15.181Z,5
2017-10-20T08:30:55.636Z,5
2017-10-20T08:31:36.097Z,5
2017-10-20T08:32:16.546Z,5
2017-10-20T08:32:56.993Z,5
2017-10-20T08:33:37.435Z,5
2017-10-20T08:34:17.886Z,5
2017-10-20T08:34:58.341Z,5
2017-10-20T08:35:38.792Z,5
2017-10-20T08:36:19.258Z,5
2017-10-20T08:36:59.711Z,5
2017-10-20T08:37:40.163Z,5
2017-10-20T08:38:20.613Z,10
2017-10-20T08:39:01.094Z,10
2017-10-20T08:39:41.539Z,10
2017-10-20T08:40:21.980Z,10
2017-10-20T08:41:02.425Z,10
2017-10-20T08:41:42.873Z,10
2017-10-20T08:42:23.323Z,10
2017-10-20T08:43:03.778Z,10
2017-10-20T08:43:44.228Z,10
2017-10-20T08:44:24.677Z,10
2017-10-20T08:45:05.137Z,10
2017-10-20T08:45:45.582Z,15
2017-10-20T08:46:26.213Z,10
2017-10-20T08:47:06.675Z,10
2017-10-20T08:47:47.130Z,15
2017-10-20T08:48:27.586Z,15
2017-10-20T08:49:08.022Z,15
2017-10-20T08:49:48.484Z,15
2017-10-20T08:50:28.928Z,15
2017-10-20T08:51:09.360Z,15
2017-10-20T08:51:49.826Z,20
2017-10-20T08:52:30.265Z,20
2017-10-20T08:53:10.735Z,25
2017-10-20T08:53:51.220Z,25
2017-10-20T08:54:31.605Z,25
2017-10-20T08:55:12.055Z,55
2017-10-20T08:55:52.513Z,30
2017-10-20T08:56:32.998Z,25
2017-10-20T08:57:13.450Z,30
2017-10-20T08:57:53.923Z,45
2017-10-20T08:58:34.381Z,40
2017-10-20T08:59:14.875Z,70
2017-10-20T08:59:55.320Z,45
2017-10-20T09:00:35.774Z,35
2017-10-20T09:01:16.223Z,40
2017-10-20T09:01:56.679Z,45
2017-10-20T09:02:37.143Z,55
2017-10-20T09:03:17.598Z,70
2017-10-20T09:03:58.057Z,25
2017-10-20T09:04:38.519Z,25
2017-10-20T09:05:18.984Z,20
2017-10-20T09:05:59.454Z,20
2017-10-20T09:06:39.907Z,15
2017-10-20T09:07:20.365Z,15
2017-10-20T09:08:00.823Z,10
2017-10-20T09:08:41.276Z,10
2017-10-20T09:09:21.737Z,10
2017-10-20T09:10:02.191Z,10
2017-10-20T09:10:42.640Z,10
2017-10-20T09:11:23.106Z,10
2017-10-20T09:12:03.557Z,10
2017-10-20T09:12:44.010Z,10
2017-10-20T09:13:24.473Z,10
2017-10-20T09:14:04.924Z,10
2017-10-20T09:14:45.373Z,10
2017-10-20T09:15:25.835Z,15
2017-10-20T09:16:06.289Z,15
2017-10-20T09:16:46.758Z,15
2017-10-20T09:17:27.211Z,25
2017-10-20T09:18:07.672Z,25
2017-10-20T09:18:48.128Z,25
2017-10-20T09:19:28.574Z,25
2017-10-20T09:20:09.025Z,30
2017-10-20T09:20:49.468Z,30
2017-10-20T09:21:29.931Z,30
2017-10-20T09:22:10.394Z,30
2017-10-20T09:22:50.849Z,30
2017-10-20T09:23:31.322Z,35
2017-10-20T09:24:11.763Z,30
2017-10-20T09:24:52.212Z,30
2017-10-20T09:25:32.670Z,35
2017-10-20T09:26:13.123Z,35
2017-10-20T09:26:53.566Z,45
2017-10-20T09:27:34.042Z,65
2017-10-20T09:28:14.495Z,40
2017-10-20T09:28:54.996Z,125
2017-10-20T09:29:35.399Z,50
2017-10-20T09:30:15.839Z,50
2017-10-20T09:30:56.292Z,55
2017-10-20T09:31:36.743Z,50
2017-10-20T09:32:17.215Z,45
2017-10-20T09:32:57.675Z,40
2017-10-20T09:33:38.148Z,40
2017-10-20T09:34:18.624Z,45
2017-10-20T09:34:59.080Z,65
2017-10-20T09:35:39.533Z,55
2017-10-20T09:36:19.987Z,50
2017-10-20T09:37:00.448Z,45
2017-10-20T09:37:40.906Z,45
2017-10-20T09:38:21.368Z,45
2017-10-20T09:39:01.823Z,40
2017-10-20T09:39:42.360Z,35
2017-10-20T09:40:22.814Z,35
2017-10-20T09:41:03.280Z,30
2017-10-20T09:41:43.717Z,30
2017-10-20T09:42:24.173Z,25
2017-10-20T09:43:04.642Z,20
2017-10-20T09:43:45.088Z,20
2017-10-20T09:44:25.570Z,20
2017-10-20T09:45:06.037Z,20
2017-10-20T09:45:46.500Z,15
2017-10-20T09:46:26.950Z,10
2017-10-20T09:47:07.394Z,10
2017-10-20T09:47:47.841Z,10
2017-10-20T09:48:28.298Z,10
2017-10-20T09:49:08.757Z,10
2017-10-20T09:49:49.203Z,10
2017-10-20T09:50:29.652Z,10
2017-10-20T09:51:10.110Z,10
2017-10-20T09:51:50.567Z,10
2017-10-20T09:52:31.012Z,10
2017-10-20T09:53:11.460Z,10
2017-10-20T09:53:51.930Z,10
2017-10-20T09:54:32.371Z,10
2017-10-20T09:55:12.826Z,10